createdAt,value
2019-05-30T00:00:20.501Z,9.26
2019-05-30T00:01:04.795Z,9.29
2019-05-30T00:02:05.307Z,9.33
2019-05-30T00:03:05.065Z,9.31
2019-05-30T00:04:06.017Z,9.31
2019-05-30T00:05:05.203Z,9.35
2019-05-30T00:06:05.328Z,9.32
2019-05-30T00:07:05.327Z,9.29
2019-05-30T00:08:05.126Z,9.32
2019-05-30T00:09:05.667Z,9.28
2019-05-30T00:10:05.414Z,9.18
2019-05-30T00:11:05.400Z,9.23
2019-05-30T00:12:05.610Z,9.23
2019-05-30T00:13:05.504Z,9.05
2019-05-30T00:14:05.484Z,9.23
2019-05-30T00:15:08.438Z,9.11
2019-05-30T00:16:05.848Z,9.15
2019-05-30T00:17:05.720Z,9.02
2019-05-30T00:18:05.659Z,9.05
2019-05-30T00:19:05.652Z,9.02
2019-05-30T00:20:06.123Z,9.01
2019-05-30T00:21:05.350Z,8.94
2019-05-30T00:22:06.581Z,8.95
2019-05-30T00:23:05.729Z,8.92
2019-05-30T00:24:06.108Z,8.86
2019-05-30T00:25:04.898Z,8.87
2019-05-30T00:26:05.703Z,8.83
2019-05-30T00:27:06.512Z,8.74
2019-05-30T00:28:07.588Z,8.79
2019-05-30T00:29:05.135Z,8.84
2019-05-30T00:30:04.133Z,8.74
2019-05-30T00:31:05.193Z,8.76
2019-05-30T00:32:05.014Z,8.66
2019-05-30T00:33:07.158Z,8.63
2019-05-30T00:34:05.924Z,8.76
2019-05-30T00:35:05.681Z,8.53
2019-05-30T00:36:04.412Z,8.58
2019-05-30T00:37:05.944Z,8.58
2019-05-30T00:38:04.553Z,8.65
2019-05-30T00:39:04.507Z,8.58
2019-05-30T00:40:06.054Z,8.53
2019-05-30T00:41:06.097Z,8.66
2019-05-30T00:42:04.768Z,8.53
2019-05-30T00:43:04.831Z,8.59
2019-05-30T00:44:04.697Z,8.66
2019-05-30T00:45:20.645Z,8.66
2019-05-30T00:46:04.795Z,8.55
2019-05-30T00:47:06.779Z,8.55
2019-05-30T00:48:04.879Z,8.59
2019-05-30T00:49:04.973Z,8.63
2019-05-30T00:50:06.525Z,8.62
2019-05-30T00:51:05.174Z,8.56
2019-05-30T00:52:06.662Z,8.58
2019-05-30T00:53:05.467Z,8.52
2019-05-30T00:54:06.855Z,8.53
2019-05-30T00:55:05.388Z,8.5
2019-05-30T00:56:06.921Z,8.37
2019-05-30T00:57:05.402Z,8.44
2019-05-30T00:58:05.316Z,8.5
2019-05-30T00:59:05.353Z,8.33
2019-05-30T01:00:06.970Z,8.33
2019-05-30T01:01:05.461Z,8.28
2019-05-30T01:02:05.217Z,8.23
2019-05-30T01:03:10.997Z,8.18
2019-05-30T01:04:05.195Z,8.15
2019-05-30T01:05:07.386Z,8.16
2019-05-30T01:06:05.118Z,8.18
2019-05-30T01:07:07.092Z,8.11
2019-05-30T01:08:05.669Z,8.01
2019-05-30T01:09:05.178Z,8.02
2019-05-30T01:10:04.893Z,8.04
2019-05-30T01:11:05.184Z,8.07
2019-05-30T01:12:05.159Z,7.98
2019-05-30T01:13:05.739Z,8.02
2019-05-30T01:14:05.319Z,7.98
2019-05-30T01:15:05.096Z,7.98
2019-05-30T01:16:05.372Z,7.97
2019-05-30T01:17:05.164Z,7.93
2019-05-30T01:18:05.213Z,7.89
2019-05-30T01:19:05.191Z,7.87
2019-05-30T01:20:05.213Z,7.83
2019-05-30T01:21:05.284Z,7.85
2019-05-30T01:22:05.387Z,7.83
2019-05-30T01:23:05.251Z,7.75
2019-05-30T01:24:05.528Z,7.8
2019-05-30T01:25:04.680Z,7.8
2019-05-30T01:26:04.302Z,7.71
2019-05-30T01:27:04.002Z,7.83
2019-05-30T01:28:05.562Z,7.72
2019-05-30T01:29:04.164Z,7.67
2019-05-30T01:30:04.213Z,7.61
2019-05-30T01:31:13.716Z,7.68
2019-05-30T01:32:04.143Z,7.69
2019-05-30T01:33:05.750Z,7.63
2019-05-30T01:34:04.250Z,7.58
2019-05-30T01:35:05.728Z,7.53
2019-05-30T01:36:05.730Z,7.57
2019-05-30T01:37:05.765Z,7.58
2019-05-30T01:38:04.442Z,7.57
2019-05-30T01:39:04.373Z,7.52
2019-05-30T01:40:06.340Z,7.5
2019-05-30T01:41:05.895Z,7.49
2019-05-30T01:42:04.479Z,7.55
2019-05-30T01:43:04.676Z,7.53
2019-05-30T01:44:04.575Z,7.49
2019-05-30T01:45:06.119Z,7.5
2019-05-30T01:46:04.836Z,7.45
2019-05-30T01:47:04.861Z,7.53
2019-05-30T01:48:06.408Z,7.52
2019-05-30T01:49:04.742Z,7.53
2019-05-30T01:50:04.880Z,7.5
2019-05-30T01:51:04.741Z,7.4
2019-05-30T01:52:04.754Z,7.4
2019-05-30T01:53:04.990Z,7.39
2019-05-30T01:54:04.526Z,7.39
2019-05-30T01:55:04.612Z,7.3
2019-05-30T01:56:04.715Z,7.3
2019-05-30T01:57:04.610Z,7.32
2019-05-30T01:58:05.474Z,7.37
2019-05-30T01:59:04.667Z,7.31
2019-05-30T02:00:07.648Z,7.25
2019-05-30T02:01:25.783Z,7.3
2019-05-30T02:02:05.007Z,7.27
2019-05-30T02:03:04.881Z,7.31
2019-05-30T02:04:05.104Z,7.24
2019-05-30T02:05:05.010Z,7.24
2019-05-30T02:06:03.704Z,7.23
2019-05-30T02:07:05.113Z,7.21
2019-05-30T02:08:03.772Z,7.15
2019-05-30T02:09:05.222Z,7.09
2019-05-30T02:10:03.916Z,7.15
2019-05-30T02:11:03.963Z,7.12
2019-05-30T02:12:05.460Z,7.06
2019-05-30T02:13:04.056Z,7.15
2019-05-30T02:14:05.605Z,7.03
2019-05-30T02:15:04.152Z,7.09
2019-05-30T02:16:05.691Z,7.12
2019-05-30T02:17:05.720Z,7.1
2019-05-30T02:18:04.237Z,6.97
2019-05-30T02:19:04.285Z,7.06
2019-05-30T02:20:04.400Z,7.09
2019-05-30T02:21:05.752Z,6.91
2019-05-30T02:22:04.422Z,6.98
2019-05-30T02:23:07.979Z,6.94
2019-05-30T02:24:04.488Z,6.95
2019-05-30T02:25:04.322Z,6.97
2019-05-30T02:26:04.560Z,7.03
2019-05-30T02:27:04.556Z,6.84
2019-05-30T02:28:04.389Z,6.84
2019-05-30T02:29:04.094Z,6.87
2019-05-30T02:30:04.054Z,6.84
2019-05-30T02:31:05.147Z,6.91
2019-05-30T02:32:06.615Z,6.91
2019-05-30T02:33:03.075Z,6.89
2019-05-30T02:34:05.279Z,6.85
2019-05-30T02:35:03.813Z,6.87
2019-05-30T02:36:05.916Z,6.85
2019-05-30T02:37:05.465Z,6.85
2019-05-30T02:38:05.069Z,6.84
2019-05-30T02:39:04.772Z,6.88
2019-05-30T02:40:14.738Z,6.92
2019-05-30T02:41:05.648Z,6.87
2019-05-30T02:42:03.367Z,6.85
2019-05-30T02:43:05.631Z,6.81
2019-05-30T02:44:05.276Z,6.77
2019-05-30T02:45:05.629Z,6.81
2019-05-30T02:46:04.118Z,6.77
2019-05-30T02:47:05.519Z,6.85
2019-05-30T02:48:05.338Z,6.81
2019-05-30T02:49:09.495Z,6.81
2019-05-30T02:50:05.441Z,6.77
2019-05-30T02:51:03.808Z,6.8
2019-05-30T02:52:06.710Z,6.81
2019-05-30T02:53:04.222Z,6.8
2019-05-30T02:54:06.301Z,6.87
2019-05-30T02:55:06.049Z,6.79
2019-05-30T02:56:05.848Z,6.8
2019-05-30T02:57:05.425Z,6.88
2019-05-30T02:58:04.239Z,6.8
2019-05-30T02:59:05.931Z,6.8
2019-05-30T03:00:07.497Z,6.81
2019-05-30T03:01:06.825Z,6.79
2019-05-30T03:02:16.539Z,6.77
2019-05-30T03:03:07.191Z,6.8
2019-05-30T03:04:06.076Z,6.81
2019-05-30T03:05:06.243Z,6.87
2019-05-30T03:06:06.234Z,6.85
2019-05-30T03:07:06.996Z,6.89
2019-05-30T03:08:06.630Z,6.87
2019-05-30T03:09:06.016Z,6.85
2019-05-30T03:10:06.944Z,6.89
2019-05-30T03:11:07.039Z,6.92
2019-05-30T03:12:06.348Z,6.98
2019-05-30T03:13:06.266Z,6.99
2019-05-30T03:14:06.433Z,7.03
2019-05-30T03:15:06.730Z,7.07
2019-05-30T03:16:06.475Z,7.07
2019-05-30T03:17:07.135Z,7.2
2019-05-30T03:18:06.854Z,7.05
2019-05-30T03:19:05.830Z,7.12
2019-05-30T03:20:11.721Z,7.12
2019-05-30T03:21:03.235Z,7.15
2019-05-30T03:22:03.473Z,7.21
2019-05-30T03:23:03.520Z,7.23
2019-05-30T03:24:03.207Z,7.31
2019-05-30T03:25:03.432Z,7.35
2019-05-30T03:26:02.617Z,7.37
2019-05-30T03:27:02.650Z,7.43
2019-05-30T03:28:02.812Z,7.55
2019-05-30T03:29:02.652Z,7.43
2019-05-30T03:30:04.991Z,7.55
2019-05-30T03:31:05.587Z,7.8
2019-05-30T03:33:04.904Z,8.15
2019-05-30T03:33:46.866Z,8.34
2019-05-30T03:34:41.477Z,8.48
2019-05-30T03:35:48.165Z,8.73
2019-05-30T03:36:41.024Z,8.99
2019-05-30T03:37:41.489Z,9.21
2019-05-30T03:38:41.168Z,9.46
2019-05-30T03:39:41.399Z,9.76
2019-05-30T03:40:40.894Z,10.08
2019-05-30T03:41:41.368Z,10.3
2019-05-30T03:42:41.369Z,10.52
2019-05-30T03:43:41.354Z,10.78
2019-05-30T03:44:41.347Z,11.09
2019-05-30T03:45:41.331Z,11.28
2019-05-30T03:46:41.322Z,11.61
2019-05-30T03:47:41.315Z,11.98
2019-05-30T03:48:41.332Z,12.23
2019-05-30T03:49:41.294Z,12.46
2019-05-30T03:50:41.297Z,12.7
2019-05-30T03:51:41.288Z,13
2019-05-30T03:52:41.288Z,13.22
2019-05-30T03:53:41.265Z,13.59
2019-05-30T03:54:41.283Z,13.84
2019-05-30T03:55:41.246Z,14.14
2019-05-30T03:56:41.002Z,14.27
2019-05-30T03:57:41.250Z,14.65
2019-05-30T03:58:41.231Z,14.84
2019-05-30T03:59:41.234Z,15.14
2019-05-30T04:00:41.230Z,15.44
2019-05-30T04:01:41.218Z,15.67
2019-05-30T04:03:01.850Z,15.96
2019-05-30T04:03:40.971Z,16.11
2019-05-30T04:04:41.237Z,16.43
2019-05-30T04:05:41.211Z,16.71
2019-05-30T04:06:41.204Z,16.89
2019-05-30T04:07:41.193Z,17.16
2019-05-30T04:08:41.178Z,17.41
2019-05-30T04:09:41.174Z,17.63
2019-05-30T04:10:41.183Z,17.86
2019-05-30T04:11:41.169Z,18.07
2019-05-30T04:12:41.171Z,18.18
2019-05-30T04:13:41.172Z,18.41
2019-05-30T04:14:41.160Z,18.57
2019-05-30T04:15:41.180Z,18.76
2019-05-30T04:16:41.156Z,18.98
2019-05-30T04:17:41.156Z,19.18
2019-05-30T04:18:41.163Z,19.43
2019-05-30T04:19:41.155Z,19.63
2019-05-30T04:20:41.143Z,19.86
2019-05-30T04:21:41.144Z,20.05
2019-05-30T04:22:41.146Z,20.17
2019-05-30T04:23:41.135Z,20.32
2019-05-30T04:24:41.136Z,20.58
2019-05-30T04:25:41.141Z,20.91
2019-05-30T04:26:41.131Z,21.16
2019-05-30T04:27:41.137Z,21.14
2019-05-30T04:28:41.177Z,21.38
2019-05-30T04:29:41.129Z,21.58
2019-05-30T04:30:41.152Z,21.8
2019-05-30T04:31:41.144Z,21.92
2019-05-30T04:32:41.150Z,22.07
2019-05-30T04:33:41.158Z,22.22
2019-05-30T04:34:41.139Z,22.49
2019-05-30T04:35:41.130Z,22.57
2019-05-30T04:36:41.148Z,22.8
2019-05-30T04:37:41.139Z,22.76
2019-05-30T04:38:41.192Z,22.85
2019-05-30T04:39:41.140Z,22.9
2019-05-30T04:40:40.905Z,22.86
2019-05-30T04:41:41.132Z,22.85
2019-05-30T04:42:41.135Z,22.86
2019-05-30T04:43:41.142Z,22.88
2019-05-30T04:44:41.145Z,22.85
2019-05-30T04:45:41.145Z,22.91
2019-05-30T04:47:41.147Z,23.16
2019-05-30T04:48:41.168Z,23.22
2019-05-30T04:49:41.145Z,23.27
2019-05-30T04:50:41.148Z,23.38
2019-05-30T04:51:41.151Z,23.5
2019-05-30T04:52:41.167Z,23.58
2019-05-30T04:53:41.152Z,23.65
2019-05-30T04:54:41.158Z,23.7
2019-05-30T05:00:40.927Z,24.34
2019-05-30T05:01:41.184Z,24.55
2019-05-30T05:02:41.198Z,24.6
2019-05-30T05:03:50.927Z,24.73
2019-05-30T05:21:40.979Z,27.03
2019-05-30T05:22:41.229Z,27.14
2019-05-30T05:23:41.230Z,27.32
2019-05-30T05:24:41.231Z,27.29
2019-05-30T05:25:41.238Z,27.4
2019-05-30T05:26:41.245Z,27.49
2019-05-30T05:27:41.261Z,27.62
2019-05-30T05:28:41.255Z,27.69
2019-05-30T05:29:41.257Z,27.84
2019-05-30T05:30:41.051Z,28.03
2019-05-30T05:31:41.267Z,28.24
2019-05-30T05:32:41.275Z,28.54
2019-05-30T05:33:55.631Z,28.64
2019-05-30T05:34:41.294Z,28.9
2019-05-30T05:35:41.299Z,28.98
2019-05-30T05:36:41.305Z,29.16
2019-05-30T05:37:41.315Z,29.28
2019-05-30T05:38:41.318Z,29.26
2019-05-30T05:39:41.322Z,29.34
2019-05-30T05:40:41.337Z,29.36
2019-05-30T05:41:41.347Z,29.48
2019-05-30T05:42:41.347Z,29.6
2019-05-30T05:43:41.363Z,29.68
2019-05-30T05:44:43.241Z,29.67
2019-05-30T05:45:41.379Z,29.74
2019-05-30T05:46:41.376Z,29.85
2019-05-30T05:47:41.385Z,30.02
2019-05-30T05:48:41.400Z,30.05
2019-05-30T05:49:41.158Z,30.31
2019-05-30T05:50:41.412Z,30.47
2019-05-30T05:51:41.419Z,30.64
2019-05-30T05:52:41.426Z,30.79
2019-05-30T05:53:41.193Z,30.89
2019-05-30T05:54:41.451Z,31.02
2019-05-30T05:55:41.453Z,31.09
2019-05-30T05:56:41.464Z,30.97
2019-05-30T05:57:41.471Z,30.77
2019-05-30T05:58:41.490Z,30.54
2019-05-30T05:59:41.493Z,30.38
2019-05-30T06:00:41.514Z,30.22
2019-05-30T06:01:41.531Z,30.19
2019-05-30T06:02:41.534Z,30.27
2019-05-30T06:03:41.531Z,30.32
2019-05-30T06:04:41.541Z,30.39
2019-05-30T06:05:56.639Z,30.45
2019-05-30T06:06:41.558Z,30.29
2019-05-30T06:07:41.566Z,30.46
2019-05-30T06:08:41.581Z,30.32
2019-05-30T06:09:41.602Z,30.37
2019-05-30T06:10:41.112Z,30.38
2019-05-30T06:11:41.602Z,30.49
2019-05-30T06:12:41.613Z,30.58
2019-05-30T06:13:41.627Z,30.73
2019-05-30T06:14:41.634Z,30.77
2019-05-30T06:15:41.158Z,30.89
2019-05-30T06:16:41.661Z,31.12
2019-05-30T06:17:41.668Z,31.17
2019-05-30T06:18:41.678Z,31.38
2019-05-30T06:19:50.798Z,31.62
2019-05-30T06:20:41.451Z,31.81
2019-05-30T06:21:56.003Z,31.99
2019-05-30T06:22:41.722Z,32.03
2019-05-30T06:23:45.333Z,32.15
2019-05-30T06:24:41.744Z,32.29
2019-05-30T06:25:41.269Z,32.35
2019-05-30T06:26:41.762Z,32.37
2019-05-30T06:27:41.781Z,32.26
2019-05-30T06:28:41.808Z,32.45
2019-05-30T06:29:41.797Z,32.45
2019-05-30T06:30:41.816Z,32.51
2019-05-30T06:31:41.819Z,32.52
2019-05-30T06:32:41.836Z,32.67
2019-05-30T06:33:41.842Z,32.7
2019-05-30T06:34:44.568Z,32.84
2019-05-30T06:35:41.865Z,32.74
2019-05-30T06:36:41.882Z,32.84
2019-05-30T06:37:41.893Z,32.75
2019-05-30T06:38:41.904Z,32.67
2019-05-30T06:39:41.915Z,32.55
2019-05-30T06:40:41.966Z,32.59
2019-05-30T06:41:41.947Z,32.56
2019-05-30T06:42:41.954Z,32.63
2019-05-30T06:43:41.973Z,32.69
2019-05-30T06:44:41.971Z,32.81
2019-05-30T06:45:41.741Z,32.85
2019-05-30T06:46:42.005Z,32.93
2019-05-30T06:47:42.018Z,32.96
2019-05-30T06:48:42.030Z,32.94
2019-05-30T06:49:42.040Z,33.01
2019-05-30T06:50:41.556Z,32.92
2019-05-30T06:51:42.059Z,33
2019-05-30T06:52:42.067Z,33.09
2019-05-30T06:53:42.088Z,33.04
2019-05-30T06:54:43.365Z,33.12
2019-05-30T06:55:42.109Z,33.26
2019-05-30T06:57:42.128Z,33.31
2019-05-30T06:58:53.081Z,33.37
2019-05-30T07:00:41.678Z,33.5
2019-05-30T07:01:42.179Z,33.51
2019-05-30T07:02:42.325Z,33.6
2019-05-30T07:03:42.469Z,33.63
2019-05-30T07:04:57.672Z,33.82
2019-05-30T07:05:43.948Z,33.91
2019-05-30T07:06:43.429Z,34.02
2019-05-30T07:07:42.865Z,34.25
2019-05-30T07:09:42.276Z,34.46
2019-05-30T07:10:42.294Z,34.7
2019-05-30T07:11:42.309Z,34.89
2019-05-30T07:12:42.316Z,35.11
2019-05-30T07:13:42.328Z,35.14
2019-05-30T07:14:42.343Z,35.18
2019-05-30T07:16:42.369Z,35.09
2019-05-30T07:18:44.945Z,34.96
2019-05-30T07:21:44.984Z,35.21
2019-05-30T07:24:42.476Z,35.45
2019-05-30T07:25:42.487Z,35.41
2019-05-30T07:26:42.514Z,35.56
2019-05-30T07:27:42.536Z,35.52
2019-05-30T07:28:42.523Z,35.43
2019-05-30T07:30:42.564Z,35.43
2019-05-30T07:31:42.572Z,35.43
2019-05-30T07:32:42.577Z,35.48
2019-05-30T07:38:42.659Z,35.75
2019-05-30T07:39:45.224Z,35.84
2019-05-30T07:40:42.692Z,35.68
2019-05-30T07:41:43.989Z,35.45
2019-05-30T07:42:42.714Z,35.47
2019-05-30T07:43:42.726Z,35.43
2019-05-30T07:44:42.494Z,35.29
2019-05-30T07:45:46.828Z,35.22
2019-05-30T07:46:42.772Z,35.1
2019-05-30T07:47:43.183Z,35.09
2019-05-30T07:48:43.406Z,35.1
2019-05-30T07:49:43.529Z,35.19
2019-05-30T07:50:43.590Z,35.25
2019-05-30T07:51:43.866Z,35.4
2019-05-30T07:52:43.861Z,35.48
2019-05-30T07:53:43.945Z,35.44
2019-05-30T07:54:44.074Z,35.47
2019-05-30T07:55:44.041Z,35.48
2019-05-30T07:56:42.904Z,35.59
2019-05-30T07:57:45.681Z,35.63
2019-05-30T07:58:42.936Z,35.59
2019-05-30T07:59:43.483Z,35.44
2019-05-30T08:00:42.958Z,35.43
2019-05-30T08:01:44.295Z,35.44
2019-05-30T08:02:43.004Z,35.48
2019-05-30T08:03:43.648Z,35.5
2019-05-30T08:04:46.112Z,35.52
2019-05-30T08:05:43.765Z,35.63
2019-05-30T08:06:45.305Z,35.75
2019-05-30T08:07:43.829Z,35.68
2019-05-30T08:08:43.083Z,35.74
2019-05-30T08:09:44.043Z,35.6
2019-05-30T08:10:42.866Z,35.62
2019-05-30T08:17:46.639Z,36.2
2019-05-30T08:19:43.235Z,36.25
2019-05-30T08:23:43.293Z,35.96
2019-05-30T08:25:43.320Z,36.13
2019-05-30T08:26:43.332Z,36.09
2019-05-30T08:27:43.564Z,36.03
2019-05-30T08:28:47.198Z,35.93
2019-05-30T08:29:43.376Z,35.93
2019-05-30T08:30:43.561Z,35.87
2019-05-30T08:31:43.689Z,35.65
2019-05-30T08:32:43.765Z,35.6
2019-05-30T08:33:47.276Z,35.41
2019-05-30T08:34:43.664Z,35.1
2019-05-30T08:35:53.681Z,34.84
2019-05-30T08:36:43.954Z,34.61
2019-05-30T08:37:44.199Z,34.19
2019-05-30T08:38:47.374Z,33.91
2019-05-30T08:39:44.147Z,33.63
2019-05-30T08:40:44.063Z,33.22
2019-05-30T08:41:44.287Z,32.81
2019-05-30T08:42:45.070Z,32.67
2019-05-30T08:43:44.474Z,32.48
2019-05-30T08:45:47.153Z,31.89
2019-05-30T08:46:44.712Z,31.58
2019-05-30T08:49:43.647Z,30.73
2019-05-30T08:50:48.962Z,30.45
2019-05-30T08:51:43.677Z,30.15
2019-05-30T08:52:43.695Z,29.7
2019-05-30T08:53:43.699Z,29.37
2019-05-30T08:54:43.709Z,29.06
2019-05-30T08:55:43.494Z,28.77
2019-05-30T08:56:43.727Z,28.44
2019-05-30T08:57:43.737Z,28.25
2019-05-30T08:58:43.844Z,28
2019-05-30T08:59:47.210Z,27.72
2019-05-30T09:00:43.520Z,27.59
2019-05-30T09:01:48.316Z,27.28
2019-05-30T09:02:44.956Z,27.03
2019-05-30T09:03:46.141Z,26.7
2019-05-30T09:04:44.587Z,26.4
2019-05-30T09:06:06.747Z,26.01
2019-05-30T09:06:44.718Z,25.79
2019-05-30T09:07:46.819Z,25.47
2019-05-30T09:08:44.827Z,25.21
2019-05-30T09:09:44.948Z,24.99
2019-05-30T09:10:46.386Z,24.85
2019-05-30T09:11:46.296Z,24.61
2019-05-30T09:12:51.577Z,24.39
2019-05-30T09:13:45.150Z,24.13
2019-05-30T09:14:46.836Z,24.08
2019-05-30T09:15:45.316Z,23.8
2019-05-30T09:16:47.776Z,23.66
2019-05-30T09:17:47.099Z,23.5
2019-05-30T09:18:47.274Z,23.32
2019-05-30T09:19:45.625Z,23.2
2019-05-30T09:20:47.357Z,23.13
2019-05-30T09:21:45.851Z,23.02
2019-05-30T09:22:46.039Z,22.95
2019-05-30T09:25:47.949Z,22.76
2019-05-30T09:26:52.739Z,22.67
2019-05-30T09:27:48.228Z,22.49
2019-05-30T09:28:46.624Z,22.42
2019-05-30T09:29:48.215Z,22.4
2019-05-30T09:30:46.725Z,22.37
2019-05-30T09:31:46.899Z,22.37
2019-05-30T09:32:46.949Z,22.24
2019-05-30T09:33:46.979Z,22.22
2019-05-30T09:34:47.313Z,22.14
2019-05-30T09:35:47.273Z,22.17
2019-05-30T09:36:45.453Z,22.05
2019-05-30T09:37:47.604Z,22
2019-05-30T09:38:47.853Z,21.96
2019-05-30T09:39:45.962Z,21.9
2019-05-30T09:40:46.042Z,21.83
2019-05-30T09:41:46.234Z,21.84
2019-05-30T09:42:58.520Z,21.77
2019-05-30T09:43:48.147Z,21.65
2019-05-30T09:44:51.840Z,21.67
2019-05-30T09:46:46.975Z,21.67
2019-05-30T09:47:49.790Z,21.58
2019-05-30T09:48:46.991Z,21.62
2019-05-30T09:49:46.530Z,21.59
2019-05-30T09:50:48.677Z,21.62
2019-05-30T09:51:46.900Z,21.56
2019-05-30T09:52:45.533Z,21.59
2019-05-30T09:53:45.945Z,21.65
2019-05-30T09:54:46.298Z,21.59
2019-05-30T09:55:46.157Z,21.52
2019-05-30T09:56:44.973Z,21.53
2019-05-30T09:58:46.014Z,21.58
2019-05-30T09:59:46.611Z,21.56
2019-05-30T10:00:46.710Z,21.58
2019-05-30T10:01:46.023Z,21.59
2019-05-30T10:02:46.715Z,21.62
2019-05-30T10:03:46.470Z,21.58
2019-05-30T10:04:45.584Z,21.67
2019-05-30T10:05:47.011Z,21.62
2019-05-30T10:06:44.711Z,21.61
2019-05-30T10:07:47.425Z,21.64
2019-05-30T10:08:46.385Z,21.62
2019-05-30T10:09:47.098Z,21.58
2019-05-30T10:10:44.210Z,21.56
2019-05-30T10:11:44.397Z,21.62
2019-05-30T10:12:45.142Z,21.62
2019-05-30T10:13:43.959Z,21.62
2019-05-30T10:14:45.085Z,21.59
2019-05-30T10:15:44.038Z,21.62
2019-05-30T10:16:47.306Z,21.59
2019-05-30T10:17:44.494Z,21.62
2019-05-30T10:18:44.251Z,21.59
2019-05-30T10:19:45.344Z,21.64
2019-05-30T10:20:44.413Z,21.58
2019-05-30T10:21:45.445Z,21.61
2019-05-30T10:22:44.489Z,21.71
2019-05-30T10:23:45.640Z,21.58
2019-05-30T10:24:46.183Z,21.65
2019-05-30T10:25:44.915Z,21.64
2019-05-30T10:26:45.574Z,21.68
2019-05-30T10:27:46.170Z,21.67
2019-05-30T10:28:44.802Z,21.77
2019-05-30T10:29:45.850Z,21.72
2019-05-30T10:30:43.523Z,21.83
2019-05-30T10:31:44.873Z,21.84
2019-05-30T10:32:43.763Z,21.86
2019-05-30T10:33:44.265Z,21.83
2019-05-30T10:34:43.758Z,21.79
2019-05-30T10:35:45.539Z,21.94
2019-05-30T10:36:51.723Z,21.96
2019-05-30T10:37:45.236Z,21.94
2019-05-30T10:38:43.759Z,21.91
2019-05-30T10:39:45.500Z,21.92
2019-05-30T10:40:43.751Z,21.92
2019-05-30T10:41:44.564Z,21.92
2019-05-30T10:42:43.748Z,21.9
2019-05-30T10:43:44.688Z,21.94
2019-05-30T10:44:43.756Z,21.94
2019-05-30T10:45:44.797Z,21.92
2019-05-30T10:46:43.741Z,21.9
2019-05-30T10:47:45.777Z,21.99
2019-05-30T10:48:43.819Z,21.88
2019-05-30T10:49:45.283Z,21.94
2019-05-30T10:50:43.734Z,21.91
2019-05-30T10:51:43.744Z,21.92
2019-05-30T10:52:43.726Z,21.92
2019-05-30T10:53:43.741Z,21.86
2019-05-30T10:54:43.733Z,21.9
2019-05-30T10:55:43.245Z,21.82
2019-05-30T10:56:43.722Z,21.94
2019-05-30T10:57:43.736Z,21.94
2019-05-30T10:58:43.720Z,21.88
2019-05-30T10:59:43.721Z,21.99
2019-05-30T11:00:43.723Z,21.94
2019-05-30T11:01:43.721Z,21.96
2019-05-30T11:02:43.714Z,21.94
2019-05-30T11:03:43.710Z,21.99
2019-05-30T11:04:43.707Z,21.94
2019-05-30T11:05:43.705Z,21.96
2019-05-30T11:06:56.770Z,21.96
2019-05-30T11:08:07.834Z,21.9
2019-05-30T11:08:43.711Z,21.91
2019-05-30T11:09:43.706Z,21.92
2019-05-30T11:10:43.729Z,21.96
2019-05-30T11:11:43.717Z,21.96
2019-05-30T11:12:43.695Z,22.03
2019-05-30T11:13:43.925Z,22
2019-05-30T11:14:43.690Z,22.07
2019-05-30T11:15:43.719Z,22.06
2019-05-30T11:16:43.690Z,22
2019-05-30T11:17:43.688Z,21.98
2019-05-30T11:18:43.688Z,22.06
2019-05-30T11:20:43.692Z,22.15
2019-05-30T11:21:43.678Z,22.1
2019-05-30T11:22:43.676Z,22.2
2019-05-30T11:23:43.675Z,22.21
2019-05-30T11:24:43.432Z,22.15
2019-05-30T11:25:43.444Z,22.15
2019-05-30T11:26:43.667Z,22.12
2019-05-30T11:27:44.953Z,22.12
2019-05-30T11:28:43.712Z,22.09
2019-05-30T11:29:43.418Z,22.17
2019-05-30T11:30:43.660Z,22.1
2019-05-30T11:31:43.659Z,22.17
2019-05-30T11:32:46.208Z,22.2
2019-05-30T11:33:43.654Z,22.25
2019-05-30T11:34:43.411Z,22.24
2019-05-30T11:35:43.651Z,22.39
2019-05-30T11:36:43.652Z,22.4
2019-05-30T11:37:43.646Z,22.33
2019-05-30T11:38:43.656Z,22.37
2019-05-30T11:39:43.644Z,22.35
2019-05-30T11:40:43.417Z,22.37
2019-05-30T11:41:43.395Z,22.45
2019-05-30T11:42:43.640Z,22.46
2019-05-30T11:43:43.634Z,22.49
2019-05-30T11:44:43.629Z,22.46
2019-05-30T11:45:43.643Z,22.4
2019-05-30T11:46:43.628Z,22.42
2019-05-30T11:47:43.637Z,22.47
2019-05-30T11:48:43.625Z,22.43
2019-05-30T11:49:43.635Z,22.49
2019-05-30T11:50:43.633Z,22.47
2019-05-30T11:51:43.623Z,22.51
2019-05-30T11:52:43.628Z,22.46
2019-05-30T11:53:43.625Z,22.51
2019-05-30T11:54:43.614Z,22.47
2019-05-30T11:55:43.614Z,22.49
2019-05-30T11:56:43.616Z,22.54
2019-05-30T11:57:43.620Z,22.64
2019-05-30T11:58:43.612Z,22.67
2019-05-30T11:59:43.609Z,22.77
2019-05-30T12:00:43.614Z,22.77
2019-05-30T12:01:43.606Z,22.8
2019-05-30T12:02:43.606Z,22.85
2019-05-30T12:03:43.611Z,22.9
2019-05-30T12:04:43.602Z,22.83
2019-05-30T12:05:43.603Z,22.8
2019-05-30T12:06:43.598Z,22.85
2019-05-30T12:07:43.596Z,22.9
2019-05-30T12:08:43.618Z,22.82
2019-05-30T12:09:43.605Z,22.83
2019-05-30T12:10:43.614Z,22.83
2019-05-30T12:11:43.595Z,22.8
2019-05-30T12:12:43.592Z,22.85
2019-05-30T12:13:43.606Z,22.91
2019-05-30T12:14:43.593Z,22.9
2019-05-30T12:15:43.591Z,22.82
2019-05-30T12:16:43.581Z,22.88
2019-05-30T12:17:43.615Z,22.85
2019-05-30T12:18:43.581Z,22.9
2019-05-30T12:19:43.575Z,22.9
2019-05-30T12:20:43.580Z,22.88
2019-05-30T12:21:43.581Z,22.91
2019-05-30T12:22:43.573Z,22.97
2019-05-30T12:23:43.634Z,22.92
2019-05-30T12:24:43.571Z,23.1
2019-05-30T12:25:43.572Z,22.95
2019-05-30T12:26:43.569Z,22.98
2019-05-30T12:27:43.567Z,23.04
2019-05-30T12:28:43.568Z,22.98
2019-05-30T12:29:43.570Z,23.05
2019-05-30T12:31:06.686Z,23.1
2019-05-30T12:31:43.564Z,23.25
2019-05-30T12:32:43.567Z,23.19
2019-05-30T12:33:43.556Z,23.16
2019-05-30T12:34:43.558Z,23.16
2019-05-30T12:35:43.557Z,23.19
2019-05-30T12:36:43.569Z,23.19
2019-05-30T12:38:06.662Z,23.23
2019-05-30T12:38:43.551Z,23.27
2019-05-30T12:39:43.548Z,23.2
2019-05-30T12:40:43.563Z,23.28
2019-05-30T12:41:43.551Z,23.25
2019-05-30T12:42:43.548Z,23.28
2019-05-30T12:43:43.549Z,23.19
2019-05-30T12:44:43.542Z,23.32
2019-05-30T12:45:43.547Z,23.32
2019-05-30T12:46:43.541Z,23.25
2019-05-30T12:47:43.538Z,23.27
2019-05-30T12:48:43.554Z,23.28
2019-05-30T12:49:43.539Z,23.28
2019-05-30T12:50:43.542Z,23.23
2019-05-30T12:51:43.535Z,23.22
2019-05-30T12:52:43.538Z,23.28
2019-05-30T12:53:43.531Z,23.25
2019-05-30T12:54:43.527Z,23.23
2019-05-30T12:55:43.528Z,23.28
2019-05-30T12:56:43.541Z,23.36
2019-05-30T12:57:43.533Z,23.42
2019-05-30T12:58:43.534Z,23.46
2019-05-30T12:59:43.525Z,23.5
2019-05-30T13:00:43.527Z,23.48
2019-05-30T13:01:43.546Z,23.58
2019-05-30T13:02:43.555Z,23.54
2019-05-30T13:03:43.529Z,23.55
2019-05-30T13:04:43.576Z,23.5
2019-05-30T13:05:43.517Z,23.57
2019-05-30T13:06:43.515Z,23.6
2019-05-30T13:07:43.525Z,23.69
2019-05-30T13:08:43.518Z,23.69
2019-05-30T13:09:43.534Z,23.68
2019-05-30T13:10:43.509Z,23.66
2019-05-30T13:11:43.508Z,23.72
2019-05-30T13:12:43.267Z,23.66
2019-05-30T13:13:43.508Z,23.7
2019-05-30T13:14:43.507Z,23.79
2019-05-30T13:15:43.510Z,23.76
2019-05-30T13:16:43.509Z,23.78
2019-05-30T13:17:43.515Z,23.85
2019-05-30T13:18:43.266Z,23.83
2019-05-30T13:19:43.520Z,23.78
2019-05-30T13:20:43.497Z,23.79
2019-05-30T13:21:43.498Z,23.79
2019-05-30T13:22:43.500Z,23.8
2019-05-30T13:23:43.498Z,23.91
2019-05-30T13:24:43.507Z,23.95
2019-05-30T13:25:43.253Z,23.95
2019-05-30T13:26:43.499Z,23.94
2019-05-30T13:27:43.252Z,23.91
2019-05-30T13:28:43.513Z,23.95
2019-05-30T13:29:44.763Z,23.98
2019-05-30T13:30:43.498Z,23.97
2019-05-30T13:31:43.490Z,23.95
2019-05-30T13:32:43.489Z,23.97
2019-05-30T13:33:43.719Z,23.88
2019-05-30T13:34:57.124Z,23.94
2019-05-30T13:35:43.496Z,23.93
2019-05-30T13:36:43.494Z,23.91
2019-05-30T13:37:43.481Z,23.97
2019-05-30T13:38:43.484Z,23.94
2019-05-30T13:39:43.478Z,23.95
2019-05-30T13:40:43.236Z,24
2019-05-30T13:41:43.481Z,23.98
2019-05-30T13:42:43.477Z,24.08
2019-05-30T13:43:43.832Z,24.08
2019-05-30T13:44:43.473Z,24.13
2019-05-30T13:45:43.475Z,24.1
2019-05-30T13:46:43.473Z,24.09
2019-05-30T13:47:43.475Z,24.15
2019-05-30T13:48:43.521Z,24.15
2019-05-30T13:49:43.469Z,24.21
2019-05-30T13:50:43.229Z,24.22
2019-05-30T13:51:43.475Z,24.16
2019-05-30T13:52:43.225Z,24.15
2019-05-30T13:53:43.471Z,24.21
2019-05-30T13:54:43.464Z,24.2
2019-05-30T13:55:43.464Z,24.21
2019-05-30T13:56:43.467Z,24.21
2019-05-30T13:57:43.480Z,24.31
2019-05-30T13:58:43.478Z,24.3
2019-05-30T13:59:43.458Z,24.31
2019-05-30T14:00:43.473Z,24.3